sensor_id;sensor_type;location;lat;lon;timestamp;temperature;humidity
36790;DHT22;22740;52.182;8.780;2023-03-12T00:06:02;-0.50;99.90
36790;DHT22;22740;52.182;8.780;2023-03-12T00:12:11;-0.60;99.90
36790;DHT22;22740;52.182;8.780;2023-03-12T00:18:13;-0.70;99.90
36790;DHT22;22740;52.182;8.780;2023-03-12T00:24:15;-0.60;99.90
36790;DHT22;22740;52.182;8.780;2023-03-12T00:30:17;-0.40;99.90
36790;DHT22;22740;52.182;8.780;2023-03-12T00:36:22;-0.30;99.90
36790;DHT22;22740;52.182;8.780;2023-03-12T00:42:25;-0.20;99.90
36790;DHT22;22740;52.182;8.780;2023-03-12T00:48:27;-0.10;99.90
36790;DHT22;22740;52.182;8.780;2023-03-12T00:54:29;-0.20;99.90
36790;DHT22;22740;52.182;8.780;2023-03-12T01:00:31;-0.20;99.90
36790;DHT22;22740;52.182;8.780;2023-03-12T01:06:33;-0.30;99.90
36790;DHT22;22740;52.182;8.780;2023-03-12T01:12:35;-0.20;99.90
36790;DHT22;22740;52.182;8.780;2023-03-12T01:18:37;-0.20;99.90
36790;DHT22;22740;52.182;8.780;2023-03-12T01:24:39;-0.10;99.90
36790;DHT22;22740;52.182;8.780;2023-03-12T01:30:41;-0.10;99.90
36790;DHT22;22740;52.182;8.780;2023-03-12T01:36:43;-0.20;99.90
36790;DHT22;22740;52.182;8.780;2023-03-12T01:42:54;-0.20;99.90
36790;DHT22;22740;52.182;8.780;2023-03-12T01:49:09;-0.20;99.90
36790;DHT22;22740;52.182;8.780;2023-03-12T01:55:13;-0.20;99.90
36790;DHT22;22740;52.182;8.780;2023-03-12T02:01:18;-0.20;99.90
36790;DHT22;22740;52.182;8.780;2023-03-12T02:07:20;-0.30;99.90
36790;DHT22;22740;52.182;8.780;2023-03-12T02:13:22;-0.30;99.90
36790;DHT22;22740;52.182;8.780;2023-03-12T02:19:36;-0.30;99.90
36790;DHT22;22740;52.182;8.780;2023-03-12T02:25:48;-0.20;99.90
36790;DHT22;22740;52.182;8.780;2023-03-12T02:31:53;-0.20;99.90
36790;DHT22;22740;52.182;8.780;2023-03-12T02:37:56;-0.20;99.90
36790;DHT22;22740;52.182;8.780;2023-03-12T02:44:05;-0.20;99.90
36790;DHT22;22740;52.182;8.780;2023-03-12T02:50:09;-0.20;99.90
36790;DHT22;22740;52.182;8.780;2023-03-12T02:56:11;-0.20;99.90
36790;DHT22;22740;52.182;8.780;2023-03-12T03:02:12;-0.20;99.90
36790;DHT22;22740;52.182;8.780;2023-03-12T03:08:14;-0.20;99.90
36790;DHT22;22740;52.182;8.780;2023-03-12T03:14:17;-0.20;99.90
36790;DHT22;22740;52.182;8.780;2023-03-12T03:20:19;-0.20;99.90
36790;DHT22;22740;52.182;8.780;2023-03-12T03:26:23;-0.20;99.90
36790;DHT22;22740;52.182;8.780;2023-03-12T03:32:25;-0.30;99.90
36790;DHT22;22740;52.182;8.780;2023-03-12T03:38:27;-0.30;99.90
36790;DHT22;22740;52.182;8.780;2023-03-12T03:44:30;-0.30;99.90
36790;DHT22;22740;52.182;8.780;2023-03-12T03:50:32;-0.20;99.90
36790;DHT22;22740;52.182;8.780;2023-03-12T03:56:34;-0.10;99.90
36790;DHT22;22740;52.182;8.780;2023-03-12T04:02:36;-0.10;99.90
36790;DHT22;22740;52.182;8.780;2023-03-12T04:08:38;0.00;99.90
36790;DHT22;22740;52.182;8.780;2023-03-12T04:14:41;0.00;99.90
36790;DHT22;22740;52.182;8.780;2023-03-12T04:20:43;0.00;99.90
36790;DHT22;22740;52.182;8.780;2023-03-12T04:26:45;-0.10;99.90
36790;DHT22;22740;52.182;8.780;2023-03-12T04:32:47;-0.20;99.90
36790;DHT22;22740;52.182;8.780;2023-03-12T04:38:49;-0.20;99.90
36790;DHT22;22740;52.182;8.780;2023-03-12T04:44:51;-0.20;99.90
36790;DHT22;22740;52.182;8.780;2023-03-12T04:50:53;-0.10;99.90
36790;DHT22;22740;52.182;8.780;2023-03-12T04:56:55;0.00;99.90
36790;DHT22;22740;52.182;8.780;2023-03-12T05:02:57;0.00;99.90
36790;DHT22;22740;52.182;8.780;2023-03-12T05:08:59;0.00;99.90
36790;DHT22;22740;52.182;8.780;2023-03-12T05:15:01;0.10;99.90
36790;DHT22;22740;52.182;8.780;2023-03-12T05:21:06;0.10;99.90
36790;DHT22;22740;52.182;8.780;2023-03-12T05:27:08;0.20;99.90
36790;DHT22;22740;52.182;8.780;2023-03-12T05:33:10;0.20;99.90
36790;DHT22;22740;52.182;8.780;2023-03-12T05:39:12;0.30;99.90
36790;DHT22;22740;52.182;8.780;2023-03-12T05:45:14;0.50;99.90
36790;DHT22;22740;52.182;8.780;2023-03-12T05:51:16;0.50;99.90
36790;DHT22;22740;52.182;8.780;2023-03-12T05:57:18;0.50;99.90
36790;DHT22;22740;52.182;8.780;2023-03-12T06:03:21;0.40;99.90
36790;DHT22;22740;52.182;8.780;2023-03-12T06:09:22;0.40;99.90
36790;DHT22;22740;52.182;8.780;2023-03-12T06:15:24;0.40;99.90
36790;DHT22;22740;52.182;8.780;2023-03-12T06:21:29;0.40;99.90
36790;DHT22;22740;52.182;8.780;2023-03-12T06:27:32;0.40;99.90
36790;DHT22;22740;52.182;8.780;2023-03-12T06:33:34;0.50;99.90
36790;DHT22;22740;52.182;8.780;2023-03-12T06:39:37;0.70;99.90
36790;DHT22;22740;52.182;8.780;2023-03-12T06:45:38;0.80;99.90
36790;DHT22;22740;52.182;8.780;2023-03-12T06:51:40;1.00;99.90
36790;DHT22;22740;52.182;8.780;2023-03-12T06:57:42;1.10;99.90
36790;DHT22;22740;52.182;8.780;2023-03-12T07:03:44;1.20;99.90
36790;DHT22;22740;52.182;8.780;2023-03-12T07:09:46;1.30;99.90
36790;DHT22;22740;52.182;8.780;2023-03-12T07:15:48;1.30;99.90
36790;DHT22;22740;52.182;8.780;2023-03-12T07:21:50;1.30;99.90
36790;DHT22;22740;52.182;8.780;2023-03-12T07:27:51;1.30;99.90
36790;DHT22;22740;52.182;8.780;2023-03-12T07:33:53;1.40;99.90
36790;DHT22;22740;52.182;8.780;2023-03-12T07:39:55;1.60;99.90
36790;DHT22;22740;52.182;8.780;2023-03-12T07:45:57;1.60;99.90
36790;DHT22;22740;52.182;8.780;2023-03-12T07:51:59;1.60;99.90
36790;DHT22;22740;52.182;8.780;2023-03-12T07:58:02;1.60;99.90
36790;DHT22;22740;52.182;8.780;2023-03-12T08:04:04;1.50;99.90
36790;DHT22;22740;52.182;8.780;2023-03-12T08:10:07;1.60;99.90
36790;DHT22;22740;52.182;8.780;2023-03-12T08:16:09;1.80;99.90
36790;DHT22;22740;52.182;8.780;2023-03-12T08:22:11;1.90;99.90
36790;DHT22;22740;52.182;8.780;2023-03-12T08:28:14;2.10;99.90
36790;DHT22;22740;52.182;8.780;2023-03-12T08:34:16;2.20;99.90
36790;DHT22;22740;52.182;8.780;2023-03-12T08:40:18;2.30;99.90
36790;DHT22;22740;52.182;8.780;2023-03-12T08:46:20;2.40;99.90
36790;DHT22;22740;52.182;8.780;2023-03-12T08:52:22;2.40;99.90
36790;DHT22;22740;52.182;8.780;2023-03-12T08:58:24;2.40;99.90
36790;DHT22;22740;52.182;8.780;2023-03-12T09:04:26;2.40;99.90
36790;DHT22;22740;52.182;8.780;2023-03-12T09:10:28;2.40;99.90
36790;DHT22;22740;52.182;8.780;2023-03-12T09:16:32;2.50;99.90
36790;DHT22;22740;52.182;8.780;2023-03-12T09:22:35;2.50;99.90
36790;DHT22;22740;52.182;8.780;2023-03-12T09:28:37;2.60;99.90
36790;DHT22;22740;52.182;8.780;2023-03-12T09:34:39;2.70;99.90
36790;DHT22;22740;52.182;8.780;2023-03-12T09:40:45;2.60;99.90
36790;DHT22;22740;52.182;8.780;2023-03-12T09:46:55;2.40;99.90
36790;DHT22;22740;52.182;8.780;2023-03-12T09:59:29;2.20;99.90
36790;DHT22;22740;52.182;8.780;2023-03-12T10:05:46;2.30;99.90
36790;DHT22;22740;52.182;8.780;2023-03-12T10:12:13;2.20;99.90
36790;DHT22;22740;52.182;8.780;2023-03-12T10:18:19;2.10;99.90
36790;DHT22;22740;52.182;8.780;2023-03-12T10:24:50;2.20;99.90
36790;DHT22;22740;52.182;8.780;2023-03-12T10:31:00;2.30;99.90
36790;DHT22;22740;52.182;8.780;2023-03-12T10:37:27;2.40;99.90
36790;DHT22;22740;52.182;8.780;2023-03-12T10:43:30;2.30;99.90
36790;DHT22;22740;52.182;8.780;2023-03-12T10:49:34;2.10;99.90
36790;DHT22;22740;52.182;8.780;2023-03-12T10:55:36;2.20;99.90
36790;DHT22;22740;52.182;8.780;2023-03-12T11:01:47;2.10;99.90
36790;DHT22;22740;52.182;8.780;2023-03-12T11:07:50;2.20;99.90
36790;DHT22;22740;52.182;8.780;2023-03-12T11:14:07;2.10;99.90
36790;DHT22;22740;52.182;8.780;2023-03-12T11:20:39;2.10;99.90
36790;DHT22;22740;52.182;8.780;2023-03-12T11:26:50;2.10;99.90
36790;DHT22;22740;52.182;8.780;2023-03-12T11:32:53;2.40;99.90
36790;DHT22;22740;52.182;8.780;2023-03-12T11:58:11;2.30;99.90
36790;DHT22;22740;52.182;8.780;2023-03-12T12:35:39;2.70;99.90
36790;DHT22;22740;52.182;8.780;2023-03-12T12:41:48;2.70;99.90
36790;DHT22;22740;52.182;8.780;2023-03-12T12:48:10;2.90;99.90
36790;DHT22;22740;52.182;8.780;2023-03-12T12:54:38;3.00;99.90
36790;DHT22;22740;52.182;8.780;2023-03-12T13:00:47;3.20;99.90
36790;DHT22;22740;52.182;8.780;2023-03-12T13:07:27;3.30;99.90
36790;DHT22;22740;52.182;8.780;2023-03-12T13:13:19;3.30;99.90
36790;DHT22;22740;52.182;8.780;2023-03-12T13:19:25;3.30;99.90
36790;DHT22;22740;52.182;8.780;2023-03-12T13:25:50;3.50;99.90
36790;DHT22;22740;52.182;8.780;2023-03-12T13:31:54;3.60;99.90
36790;DHT22;22740;52.182;8.780;2023-03-12T13:38:00;3.70;99.90
36790;DHT22;22740;52.182;8.780;2023-03-12T13:50:47;4.10;99.90
36790;DHT22;22740;52.182;8.780;2023-03-12T13:57:08;4.30;99.90
36790;DHT22;22740;52.182;8.780;2023-03-12T14:09:41;4.50;99.90
36790;DHT22;22740;52.182;8.780;2023-03-12T14:16:05;4.60;99.90
36790;DHT22;22740;52.182;8.780;2023-03-12T14:22:10;4.70;99.90
36790;DHT22;22740;52.182;8.780;2023-03-12T14:28:20;4.90;99.90
36790;DHT22;22740;52.182;8.780;2023-03-12T14:34:25;4.90;99.90
36790;DHT22;22740;52.182;8.780;2023-03-12T14:40:50;5.00;99.90
36790;DHT22;22740;52.182;8.780;2023-03-12T14:46:59;5.20;99.90
36790;DHT22;22740;52.182;8.780;2023-03-12T14:53:23;5.30;99.90
36790;DHT22;22740;52.182;8.780;2023-03-12T14:59:30;5.40;99.90
36790;DHT22;22740;52.182;8.780;2023-03-12T15:05:32;5.50;99.90
36790;DHT22;22740;52.182;8.780;2023-03-12T15:11:36;5.70;99.90
36790;DHT22;22740;52.182;8.780;2023-03-12T15:17:38;5.90;99.90
36790;DHT22;22740;52.182;8.780;2023-03-12T15:23:42;5.80;99.90
36790;DHT22;22740;52.182;8.780;2023-03-12T15:29:45;5.90;99.90
36790;DHT22;22740;52.182;8.780;2023-03-12T15:42:09;6.10;99.90
36790;DHT22;22740;52.182;8.780;2023-03-12T15:54:29;6.40;99.90
36790;DHT22;22740;52.182;8.780;2023-03-12T16:00:42;6.50;99.90
36790;DHT22;22740;52.182;8.780;2023-03-12T16:06:46;6.60;99.90
36790;DHT22;22740;52.182;8.780;2023-03-12T16:12:50;6.80;99.90
36790;DHT22;22740;52.182;8.780;2023-03-12T16:18:56;6.80;99.90
36790;DHT22;22740;52.182;8.780;2023-03-12T16:24:58;6.80;99.90
36790;DHT22;22740;52.182;8.780;2023-03-12T16:31:00;6.90;99.90
36790;DHT22;22740;52.182;8.780;2023-03-12T16:37:02;6.90;99.90
36790;DHT22;22740;52.182;8.780;2023-03-12T16:43:06;7.00;99.90
36790;DHT22;22740;52.182;8.780;2023-03-12T16:49:14;7.00;99.90
36790;DHT22;22740;52.182;8.780;2023-03-12T16:55:20;7.10;99.90
36790;DHT22;22740;52.182;8.780;2023-03-12T17:01:23;7.10;99.90
36790;DHT22;22740;52.182;8.780;2023-03-12T17:07:27;7.20;99.90
36790;DHT22;22740;52.182;8.780;2023-03-12T17:13:29;7.30;99.90
36790;DHT22;22740;52.182;8.780;2023-03-12T17:19:31;7.30;99.90
36790;DHT22;22740;52.182;8.780;2023-03-12T17:25:35;7.30;99.90
36790;DHT22;22740;52.182;8.780;2023-03-12T17:31:37;7.20;99.90
36790;DHT22;22740;52.182;8.780;2023-03-12T17:37:39;7.20;99.90
36790;DHT22;22740;52.182;8.780;2023-03-12T17:43:41;7.20;99.90
36790;DHT22;22740;52.182;8.780;2023-03-12T17:49:43;7.20;99.90
36790;DHT22;22740;52.182;8.780;2023-03-12T17:55:45;7.30;99.90
36790;DHT22;22740;52.182;8.780;2023-03-12T18:01:48;7.30;99.90
36790;DHT22;22740;52.182;8.780;2023-03-12T18:07:49;7.30;99.90
36790;DHT22;22740;52.182;8.780;2023-03-12T18:13:51;7.30;99.90
36790;DHT22;22740;52.182;8.780;2023-03-12T18:19:53;7.30;99.90
36790;DHT22;22740;52.182;8.780;2023-03-12T18:25:55;7.30;99.90
36790;DHT22;22740;52.182;8.780;2023-03-12T18:31:57;7.40;99.90
36790;DHT22;22740;52.182;8.780;2023-03-12T18:37:59;7.40;99.90
36790;DHT22;22740;52.182;8.780;2023-03-12T18:44:01;7.50;99.90
36790;DHT22;22740;52.182;8.780;2023-03-12T18:50:03;7.50;99.90
36790;DHT22;22740;52.182;8.780;2023-03-12T18:56:05;7.50;99.90
36790;DHT22;22740;52.182;8.780;2023-03-12T19:02:08;7.50;99.90
36790;DHT22;22740;52.182;8.780;2023-03-12T19:08:10;7.50;99.90
36790;DHT22;22740;52.182;8.780;2023-03-12T19:14:12;7.60;99.90
36790;DHT22;22740;52.182;8.780;2023-03-12T19:20:16;7.60;99.90
36790;DHT22;22740;52.182;8.780;2023-03-12T19:26:18;7.60;99.90
36790;DHT22;22740;52.182;8.780;2023-03-12T19:32:20;7.60;99.90
36790;DHT22;22740;52.182;8.780;2023-03-12T19:38:26;7.60;99.90
36790;DHT22;22740;52.182;8.780;2023-03-12T19:44:28;7.70;99.90
36790;DHT22;22740;52.182;8.780;2023-03-12T19:50:30;7.70;99.90
36790;DHT22;22740;52.182;8.780;2023-03-12T19:56:32;7.70;99.90
36790;DHT22;22740;52.182;8.780;2023-03-12T20:02:35;7.70;99.90
36790;DHT22;22740;52.182;8.780;2023-03-12T20:08:38;7.70;99.90
36790;DHT22;22740;52.182;8.780;2023-03-12T20:14:39;7.70;99.90
36790;DHT22;22740;52.182;8.780;2023-03-12T20:20:45;7.70;99.90
36790;DHT22;22740;52.182;8.780;2023-03-12T20:26:47;7.80;99.90
36790;DHT22;22740;52.182;8.780;2023-03-12T20:32:49;7.90;99.90
36790;DHT22;22740;52.182;8.780;2023-03-12T20:38:50;8.00;99.90
36790;DHT22;22740;52.182;8.780;2023-03-12T20:44:52;8.00;99.90
36790;DHT22;22740;52.182;8.780;2023-03-12T20:50:54;8.00;99.90
36790;DHT22;22740;52.182;8.780;2023-03-12T20:56:56;8.10;99.90
36790;DHT22;22740;52.182;8.780;2023-03-12T21:03:01;8.10;99.90
36790;DHT22;22740;52.182;8.780;2023-03-12T21:09:03;8.20;99.90
36790;DHT22;22740;52.182;8.780;2023-03-12T21:15:09;8.20;99.90
36790;DHT22;22740;52.182;8.780;2023-03-12T21:21:13;8.30;99.90
36790;DHT22;22740;52.182;8.780;2023-03-12T21:27:15;8.30;99.90
36790;DHT22;22740;52.182;8.780;2023-03-12T21:33:25;8.20;99.90
36790;DHT22;22740;52.182;8.780;2023-03-12T21:39:27;8.20;99.90
36790;DHT22;22740;52.182;8.780;2023-03-12T21:45:29;8.20;99.90
36790;DHT22;22740;52.182;8.780;2023-03-12T21:51:31;8.20;99.90
36790;DHT22;22740;52.182;8.780;2023-03-12T21:57:33;8.20;99.90
36790;DHT22;22740;52.182;8.780;2023-03-12T22:03:36;8.30;99.90
36790;DHT22;22740;52.182;8.780;2023-03-12T22:09:38;8.30;99.90
36790;DHT22;22740;52.182;8.780;2023-03-12T22:15:40;8.40;99.90
36790;DHT22;22740;52.182;8.780;2023-03-12T22:21:42;8.50;99.90
36790;DHT22;22740;52.182;8.780;2023-03-12T22:27:45;8.50;99.90
36790;DHT22;22740;52.182;8.780;2023-03-12T22:33:47;8.50;99.90
36790;DHT22;22740;52.182;8.780;2023-03-12T22:39:50;8.40;99.90
36790;DHT22;22740;52.182;8.780;2023-03-12T22:45:53;8.40;99.90
36790;DHT22;22740;52.182;8.780;2023-03-12T22:51:55;8.40;99.90
36790;DHT22;22740;52.182;8.780;2023-03-12T22:57:57;8.40;99.90
36790;DHT22;22740;52.182;8.780;2023-03-12T23:03:59;8.30;99.90
36790;DHT22;22740;52.182;8.780;2023-03-12T23:10:02;8.20;99.90
36790;DHT22;22740;52.182;8.780;2023-03-12T23:16:09;8.30;99.90
36790;DHT22;22740;52.182;8.780;2023-03-12T23:22:11;8.30;99.90
36790;DHT22;22740;52.182;8.780;2023-03-12T23:28:13;8.40;99.90
36790;DHT22;22740;52.182;8.780;2023-03-12T23:34:15;8.40;99.90
36790;DHT22;22740;52.182;8.780;2023-03-12T23:40:17;8.50;99.90
36790;DHT22;22740;52.182;8.780;2023-03-12T23:46:19;8.50;99.90
36790;DHT22;22740;52.182;8.780;2023-03-12T23:52:25;8.50;99.90
36790;DHT22;22740;52.182;8.780;2023-03-12T23:58:27;8.50;99.90
